Time;durP1;ratioP1;P1;durP2;ratioP2;P2;SDS_P1;SDS_P2;PMS_P1;PMS_P2;Temp;Humidity;BMP_temperature;BMP_pressure;BME280_temperature;BME280_humidity;BME280_pressure;Samples;Min_cycle;Max_cycle;Signal;HPM_P1;HPM_P2
2023/05/28 00:01:46;;;;;;;;;;;;;;;19.35;67.12;96857.60;602096;235;66330;-62
2023/05/28 00:04:14;;;;;;;;;;;;;;;19.35;67.14;96852.27;602150;235;68511;-62
2023/05/28 00:06:41;;;;;;;;;;;;;;;19.35;67.13;96858.40;602089;235;65036;-61
2023/05/28 00:09:10;;;;;;;;;;;;;;;19.36;67.13;96859.19;602103;235;66440;-61
2023/05/28 00:11:37;;;;;;;;;;;;;;;19.34;67.09;96851.45;602063;235;68491;-60
2023/05/28 00:14:05;;;;;;;;;;;;;;;19.35;67.11;96854.94;602100;235;63021;-61
2023/05/28 00:16:35;;;;;;;;;;;;;;;19.35;67.10;96861.06;602096;235;66296;-60
2023/05/28 00:19:05;;;;;;;;;;;;;;;19.34;67.13;96850.66;601894;235;66130;-60
2023/05/28 00:21:33;;;;;;;;;;;;;;;19.35;67.14;96847.73;602084;235;62995;-61
2023/05/28 00:24:01;;;;;;;;;;;;;;;19.35;67.11;96852.27;602065;235;68503;-61
2023/05/28 00:26:28;;;;;;;;;;;;;;;19.35;67.11;96849.61;602064;235;68786;-60
2023/05/28 00:28:57;;;;;;;;;;;;;;;19.34;67.11;96842.66;602104;235;64884;-62
2023/05/28 00:31:24;;;;;;;;;;;;;;;19.34;67.07;96846.13;602124;235;68358;-62
2023/05/28 00:33:52;;;;;;;;;;;;;;;19.34;67.09;96832.00;602058;235;66045;-62
2023/05/28 00:36:19;;;;;;;;;;;;;;;19.35;67.07;96836.28;602087;235;63635;-62
2023/05/28 00:38:47;;;;;;;;;;;;;;;19.34;67.07;96829.34;602072;235;68293;-62
2023/05/28 00:41:16;;;;;;;;;;;;;;;19.34;67.03;96816.02;602080;235;67222;-62
2023/05/28 00:43:44;;;;;;;;;;;;;;;19.34;67.05;96819.47;602104;235;62884;-62
2023/05/28 00:46:11;;;;;;;;;;;;;;;19.34;67.04;96818.67;602084;235;66029;-62
2023/05/28 00:48:39;;;;;;;;;;;;;;;19.34;67.03;96818.67;602081;235;68486;-63
2023/05/28 00:51:07;;;;;;;;;;;;;;;19.34;67.08;96808.02;602035;235;64882;-62
2023/05/28 00:53:35;;;;;;;;;;;;;;;19.34;67.08;96813.35;602112;235;68716;-62
2023/05/28 00:56:03;;;;;;;;;;;;;;;19.33;67.02;96806.44;602128;235;66505;-62
2023/05/28 00:58:34;;;;;;;;;;;;;;;19.34;67.02;96802.69;601786;235;62853;-63
2023/05/28 01:01:00;;;;;;;;;;;;;;;19.34;67.08;96808.02;599966;236;66140;-62
2023/05/28 01:03:27;;;;;;;;;;;;;;;19.34;67.06;96805.36;600049;236;66466;-62
2023/05/28 01:05:55;;;;;;;;;;;;;;;19.34;67.07;96808.81;600039;236;63688;-62
2023/05/28 01:08:23;;;;;;;;;;;;;;;19.34;67.09;96800.03;600086;236;66115;-62
2023/05/28 01:10:50;;;;;;;;;;;;;;;19.33;67.04;96801.90;600121;236;69027;-62
2023/05/28 01:13:18;;;;;;;;;;;;;;;19.33;67.04;96801.90;600027;236;62901;-62
2023/05/28 01:15:45;;;;;;;;;;;;;;;19.35;67.05;96798.98;600060;236;65849;-62
2023/05/28 01:18:14;;;;;;;;;;;;;;;19.33;67.07;96791.23;600051;236;68933;-62
2023/05/28 01:20:41;;;;;;;;;;;;;;;19.34;67.07;96792.03;600055;236;64608;-61
2023/05/28 01:23:11;;;;;;;;;;;;;;;19.34;67.02;96794.70;600116;236;68250;-61
2023/05/28 01:25:40;;;;;;;;;;;;;;;19.34;67.04;96795.49;600079;236;68993;-61
2023/05/28 01:28:09;;;;;;;;;;;;;;;19.33;67.03;96793.91;600094;236;62945;-61
2023/05/28 01:30:37;;;;;;;;;;;;;;;19.33;67.08;96790.44;600060;236;66175;-61
2023/05/28 01:33:05;;;;;;;;;;;;;;;19.33;67.08;96790.44;600105;236;68150;-61
2023/05/28 01:35:32;;;;;;;;;;;;;;;19.33;67.08;96796.56;600119;236;65086;-61
2023/05/28 01:38:01;;;;;;;;;;;;;;;19.33;67.12;96791.23;600036;236;67009;-61
2023/05/28 01:40:30;;;;;;;;;;;;;;;19.33;67.07;96788.58;600089;236;66346;-62
2023/05/28 01:42:58;;;;;;;;;;;;;;;19.32;67.04;96784.33;600087;236;65072;-62
2023/05/28 01:45:26;;;;;;;;;;;;;;;19.33;67.03;96785.12;600038;236;68598;-62
2023/05/28 01:47:54;;;;;;;;;;;;;;;19.33;67.07;96791.23;600081;236;68386;-62
2023/05/28 01:50:23;;;;;;;;;;;;;;;19.32;67.04;96784.33;600115;236;65194;-61
2023/05/28 01:52:50;;;;;;;;;;;;;;;19.32;67.06;96791.52;600102;236;68332;-61
2023/05/28 01:55:18;;;;;;;;;;;;;;;19.32;67.05;96794.98;600100;236;68138;-61
2023/05/28 01:57:46;;;;;;;;;;;;;;;19.33;67.02;96793.11;600104;236;64898;-61
2023/05/28 02:00:15;;;;;;;;;;;;;;;19.33;67.05;96793.11;600075;236;68053;-61
2023/05/28 02:02:42;;;;;;;;;;;;;;;19.32;67.04;96796.84;600119;236;67747;-61
2023/05/28 02:05:11;;;;;;;;;;;;;;;19.32;67.05;96799.52;599538;236;65094;-61
2023/05/28 02:07:38;;;;;;;;;;;;;;;19.32;67.04;96797.64;599976;236;68674;-61
2023/05/28 02:10:06;;;;;;;;;;;;;;;19.32;67.05;96799.52;600090;236;69010;-61
2023/05/28 02:12:34;;;;;;;;;;;;;;;19.33;67.06;96799.23;600088;236;65268;-61
2023/05/28 02:15:03;;;;;;;;;;;;;;;19.32;67.02;96805.64;600151;236;68190;-61
2023/05/28 02:17:31;;;;;;;;;;;;;;;19.33;67.01;96798.44;600078;236;66160;-61
2023/05/28 02:19:58;;;;;;;;;;;;;;;19.32;67.04;96794.19;600068;236;63922;-61
2023/05/28 02:22:27;;;;;;;;;;;;;;;19.32;67.03;96802.97;600125;236;68243;-61
2023/05/28 02:24:55;;;;;;;;;;;;;;;19.33;67.02;96801.10;600033;236;65996;-61
2023/05/28 02:27:23;;;;;;;;;;;;;;;19.32;67.03;96799.52;600094;236;64954;-61
2023/05/28 02:29:51;;;;;;;;;;;;;;;19.32;67.02;96799.52;600053;236;68920;-61
2023/05/28 02:32:18;;;;;;;;;;;;;;;19.32;67.01;96794.19;600067;236;68569;-61
2023/05/28 02:34:46;;;;;;;;;;;;;;;19.33;67.02;96795.77;600079;236;65041;-60
2023/05/28 02:37:13;;;;;;;;;;;;;;;19.32;67.03;96794.19;600045;236;68445;-61
2023/05/28 02:39:41;;;;;;;;;;;;;;;19.32;67.02;96804.84;600047;236;68505;-61
2023/05/28 02:42:09;;;;;;;;;;;;;;;19.32;67.01;96800.31;600113;236;62518;-61
2023/05/28 02:44:37;;;;;;;;;;;;;;;19.32;66.99;96797.64;600067;236;68478;-61
2023/05/28 02:47:05;;;;;;;;;;;;;;;19.32;67.03;96804.84;595014;236;65644;-61
2023/05/28 02:49:33;;;;;;;;;;;;;;;19.32;67.01;96797.64;600090;236;62829;-61
2023/05/28 02:52:01;;;;;;;;;;;;;;;19.32;67.00;96796.84;600039;236;68605;-61
2023/05/28 02:54:30;;;;;;;;;;;;;;;19.30;67.01;96795.23;599981;236;47219;-61
2023/05/28 02:56:57;;;;;;;;;;;;;;;19.33;67.01;96798.44;600119;236;65849;-61
2023/05/28 02:59:25;;;;;;;;;;;;;;;19.30;67.01;96797.89;600049;236;68432;-61
2023/05/28 03:01:52;;;;;;;;;;;;;;;19.32;67.03;96799.52;600097;236;66032;-61
2023/05/28 03:04:20;;;;;;;;;;;;;;;19.32;66.97;96799.52;600078;236;63044;-61
2023/05/28 03:06:48;;;;;;;;;;;;;;;19.30;67.01;96797.89;600112;236;68360;-61
2023/05/28 03:09:16;;;;;;;;;;;;;;;19.32;67.00;96794.19;600095;236;68556;-61
2023/05/28 03:11:44;;;;;;;;;;;;;;;19.31;66.99;96796.02;600084;236;65125;-61
2023/05/28 03:14:12;;;;;;;;;;;;;;;19.32;67.00;96799.52;600084;236;65825;-61
2023/05/28 03:16:40;;;;;;;;;;;;;;;19.32;67.00;96800.31;600085;236;68567;-61
2023/05/28 03:19:09;;;;;;;;;;;;;;;19.31;66.99;96796.02;597847;236;43886;-61
2023/05/28 03:21:37;;;;;;;;;;;;;;;19.31;66.97;96798.69;597288;236;66912;-61
2023/05/28 03:24:05;;;;;;;;;;;;;;;19.30;67.01;96803.22;599804;236;68737;-61
2023/05/28 03:26:40;;;;;;;;;;;;;;;19.31;66.97;96798.69;599745;236;47540;-61
2023/05/28 03:29:08;;;;;;;;;;;;;;;19.30;66.99;96797.89;600059;236;67523;-61
2023/05/28 03:31:45;;;;;;;;;;;;;;;19.30;66.97;96797.89;598211;236;48459;-61
2023/05/28 03:34:14;;;;;;;;;;;;;;;19.32;66.99;96799.52;600074;236;65097;-61
2023/05/28 03:36:42;;;;;;;;;;;;;;;19.31;66.99;96796.02;600098;236;69186;-61
2023/05/28 03:39:11;;;;;;;;;;;;;;;19.31;67.00;96798.69;600065;236;66763;-61
2023/05/28 03:41:38;;;;;;;;;;;;;;;19.30;66.96;96791.77;600074;236;65079;-63
2023/05/28 03:44:07;;;;;;;;;;;;;;;19.29;67.00;96796.30;600047;236;69200;-63
2023/05/28 03:46:35;;;;;;;;;;;;;;;19.30;66.97;96795.23;600076;236;66355;-63
2023/05/28 03:49:03;;;;;;;;;;;;;;;19.30;66.99;96803.22;600070;236;63168;-63
2023/05/28 03:51:31;;;;;;;;;;;;;;;19.29;66.96;96796.30;600076;236;69362;-63
2023/05/28 03:54:00;;;;;;;;;;;;;;;19.30;66.96;96797.89;600089;236;66418;-63
2023/05/28 03:56:29;;;;;;;;;;;;;;;19.29;66.96;96798.17;600060;236;65925;-63
2023/05/28 03:58:57;;;;;;;;;;;;;;;19.29;66.96;96800.84;599907;236;69599;-63
2023/05/28 04:01:25;;;;;;;;;;;;;;;19.29;66.95;96806.17;599672;236;69077;-63
2023/05/28 04:03:55;;;;;;;;;;;;;;;19.31;66.96;96812.02;599649;236;65035;-63
2023/05/28 04:06:23;;;;;;;;;;;;;;;19.29;66.96;96806.97;599673;236;68786;-63
2023/05/28 04:08:52;;;;;;;;;;;;;;;19.30;66.95;96805.89;599636;236;67149;-63
2023/05/28 04:11:21;;;;;;;;;;;;;;;19.30;66.95;96807.76;599637;236;63878;-63
2023/05/28 04:13:48;;;;;;;;;;;;;;;19.29;66.96;96809.63;599675;236;68759;-63
2023/05/28 04:16:16;;;;;;;;;;;;;;;19.29;66.95;96806.17;599671;236;69451;-63
2023/05/28 04:18:45;;;;;;;;;;;;;;;19.28;66.97;96810.67;599642;236;65708;-63
2023/05/28 04:21:13;;;;;;;;;;;;;;;19.29;66.97;96814.16;599671;236;68719;-63
2023/05/28 04:23:40;;;;;;;;;;;;;;;19.31;66.96;96820.00;599637;236;66426;-62
2023/05/28 04:26:09;;;;;;;;;;;;;;;19.30;67.00;96823.75;599677;236;65819;-63
2023/05/28 04:28:37;;;;;;;;;;;;;;;19.30;66.99;96827.20;599674;236;69227;-63
2023/05/28 04:31:04;;;;;;;;;;;;;;;19.29;66.95;96822.16;599666;236;68573;-63
2023/05/28 04:33:32;;;;;;;;;;;;;;;19.30;66.96;96827.20;599633;236;65141;-62
2023/05/28 04:36:01;;;;;;;;;;;;;;;19.30;66.99;96819.21;599671;236;66821;-62
2023/05/28 04:38:34;;;;;;;;;;;;;;;19.29;66.96;96824.82;599652;236;69770;-61
2023/05/28 04:41:08;;;;;;;;;;;;;;;19.29;66.95;96828.28;599662;236;65973;-61
2023/05/28 04:43:33;;;;;;;;;;;;;;;19.29;66.96;96817.63;599385;236;66565;-62
2023/05/28 04:46:03;;;;;;;;;;;;;;;19.29;66.97;96822.16;599666;236;68706;-61
2023/05/28 04:48:34;;;;;;;;;;;;;;;19.28;66.98;96821.33;599653;236;65687;-62
2023/05/28 04:51:03;;;;;;;;;;;;;;;19.28;66.97;96821.33;599703;236;68651;-62
2023/05/28 04:53:31;;;;;;;;;;;;;;;19.29;66.98;96816.83;599663;236;68964;-61
2023/05/28 04:56:00;;;;;;;;;;;;;;;19.30;66.98;96815.75;595417;236;62667;-62
2023/05/28 04:58:28;;;;;;;;;;;;;;;19.28;66.98;96813.34;599675;236;68954;-62
2023/05/28 05:00:57;;;;;;;;;;;;;;;19.28;66.98;96824.00;600168;236;69311;-61
2023/05/28 05:03:27;;;;;;;;;;;;;;;19.28;67.00;96826.66;600137;236;65594;-61
2023/05/28 05:05:54;;;;;;;;;;;;;;;19.28;66.99;96821.33;600153;236;68882;-61
2023/05/28 05:08:22;;;;;;;;;;;;;;;19.28;67.00;96826.66;600161;236;69370;-61
2023/05/28 05:10:49;;;;;;;;;;;;;;;19.28;66.99;96826.66;600167;236;62730;-61
2023/05/28 05:13:17;;;;;;;;;;;;;;;19.29;66.97;96827.48;600163;236;66610;-61
2023/05/28 05:15:45;;;;;;;;;;;;;;;19.28;67.00;96828.53;600156;236;69221;-61
2023/05/28 05:18:14;;;;;;;;;;;;;;;19.28;66.98;96826.66;600094;236;65736;-62
2023/05/28 05:20:42;;;;;;;;;;;;;;;19.28;66.99;96829.33;600116;236;68755;-62
2023/05/28 05:23:09;;;;;;;;;;;;;;;19.28;67.03;96829.33;600150;236;66665;-61
2023/05/28 05:25:40;;;;;;;;;;;;;;;19.27;67.01;96833.06;600168;236;65008;-61
2023/05/28 05:28:07;;;;;;;;;;;;;;;19.28;67.00;96831.20;600189;236;66619;-61
2023/05/28 05:30:35;;;;;;;;;;;;;;;19.28;67.03;96831.98;600157;236;66687;-61
2023/05/28 05:33:04;;;;;;;;;;;;;;;19.28;67.00;96828.53;600147;236;65081;-61
2023/05/28 05:35:34;;;;;;;;;;;;;;;19.27;67.01;96825.07;599886;236;46842;-61
2023/05/28 05:38:19;;;;;;;;;;;;;;;19.28;67.01;96829.33;600265;236;39277;-61
2023/05/28 05:40:51;;;;;;;;;;;;;;;19.27;67.03;96827.73;599516;236;43775;-61
2023/05/28 05:43:37;;;;;;;;;;;;;;;19.27;67.04;96819.74;600218;236;43148;-61
2023/05/28 05:46:05;;;;;;;;;;;;;;;19.28;67.04;96825.86;595302;236;68366;-61
2023/05/28 05:48:35;;;;;;;;;;;;;;;19.27;67.06;96834.94;599337;236;62842;-61
2023/05/28 05:51:03;;;;;;;;;;;;;;;19.27;67.05;96834.94;600134;236;69126;-60
2023/05/28 05:53:31;;;;;;;;;;;;;;;19.27;67.04;96833.06;600109;236;69235;-60
2023/05/28 05:55:59;;;;;;;;;;;;;;;19.27;67.05;96833.06;600106;236;62902;-60
2023/05/28 05:58:28;;;;;;;;;;;;;;;19.27;67.06;96830.41;600039;236;69272;-60
2023/05/28 06:00:56;;;;;;;;;;;;;;;19.26;67.06;96828.81;599633;236;66357;-61
2023/05/28 06:03:23;;;;;;;;;;;;;;;19.27;67.07;96833.06;599692;236;65148;-60
2023/05/28 06:06:08;;;;;;;;;;;;;;;19.27;67.09;96833.06;599037;236;47120;-60
2023/05/28 06:08:54;;;;;;;;;;;;;;;19.28;67.10;96837.32;599741;236;39148;-60
2023/05/28 06:11:25;;;;;;;;;;;;;;;19.24;67.09;96844.25;599314;236;42233;-61
2023/05/28 06:13:53;;;;;;;;;;;;;;;19.24;67.66;96833.59;599635;236;68442;-60
2023/05/28 06:16:22;;;;;;;;;;;;;;;19.26;67.82;96846.64;599625;236;68837;-60
2023/05/28 06:18:51;;;;;;;;;;;;;;;19.26;67.97;96839.47;595368;236;66775;-60
2023/05/28 06:21:18;;;;;;;;;;;;;;;19.27;67.97;96840.27;599650;236;68230;-60
2023/05/28 06:23:46;;;;;;;;;;;;;;;19.28;67.95;96841.85;599649;236;68454;-60
2023/05/28 06:26:13;;;;;;;;;;;;;;;19.28;68.08;96847.98;599649;236;62936;-61
2023/05/28 06:28:41;;;;;;;;;;;;;;;19.29;68.02;96852.27;599609;236;68870;-60
2023/05/28 06:31:09;;;;;;;;;;;;;;;19.29;68.02;96852.27;599685;236;66136;-60
2023/05/28 06:33:38;;;;;;;;;;;;;;;19.29;68.03;96844.27;599686;236;66121;-60
2023/05/28 06:36:08;;;;;;;;;;;;;;;19.30;68.03;96848.52;599655;236;68685;-60
2023/05/28 06:38:35;;;;;;;;;;;;;;;19.30;68.02;96850.39;599595;236;69564;-60
2023/05/28 06:41:04;;;;;;;;;;;;;;;19.30;67.99;96851.19;599608;236;65061;-60
2023/05/28 06:43:33;;;;;;;;;;;;;;;19.30;68.05;96856.52;599455;236;47204;-60
2023/05/28 06:46:21;;;;;;;;;;;;;;;19.31;68.04;96854.64;599372;236;47010;-60
2023/05/28 06:48:48;;;;;;;;;;;;;;;19.32;68.03;96855.47;599695;236;62688;-60
2023/05/28 06:51:16;;;;;;;;;;;;;;;19.30;68.00;96856.52;599635;236;66388;-60
2023/05/28 06:53:43;;;;;;;;;;;;;;;19.31;67.95;96849.31;599601;236;66406;-61
2023/05/28 06:56:12;;;;;;;;;;;;;;;19.32;67.99;96858.13;599649;236;66131;-60
2023/05/28 06:58:48;;;;;;;;;;;;;;;19.32;67.86;96868.79;599659;236;50607;-60
2023/05/28 07:01:30;;;;;;;;;;;;;;;19.32;67.92;96855.47;590429;236;49795;-61
2023/05/28 07:04:00;;;;;;;;;;;;;;;19.32;67.84;96858.13;599502;236;42598;-61
2023/05/28 07:06:43;;;;;;;;;;;;;;;19.32;67.84;96858.13;599608;236;46075;-61
2023/05/28 07:09:12;;;;;;;;;;;;;;;19.33;67.83;96865.05;599484;236;45525;-61
2023/05/28 07:11:40;;;;;;;;;;;;;;;19.32;67.83;96861.59;599637;236;65667;-61
2023/05/28 07:14:08;;;;;;;;;;;;;;;19.33;67.84;96865.05;599642;236;66208;-61
2023/05/28 07:16:36;;;;;;;;;;;;;;;19.33;67.88;96859.72;599631;236;68873;-61
2023/05/28 07:19:04;;;;;;;;;;;;;;;19.33;67.81;96865.05;599606;236;65840;-61
2023/05/28 07:21:32;;;;;;;;;;;;;;;19.33;67.83;96862.39;599655;236;68750;-61
2023/05/28 07:24:00;;;;;;;;;;;;;;;19.33;67.80;96859.72;599611;236;68556;-61
2023/05/28 07:26:28;;;;;;;;;;;;;;;19.33;67.75;96859.72;599644;236;65317;-61
2023/05/28 07:28:57;;;;;;;;;;;;;;;19.34;67.73;96863.98;599418;236;46109;-61
2023/05/28 07:31:25;;;;;;;;;;;;;;;19.34;67.73;96859.44;599606;236;69207;-61
2023/05/28 07:33:53;;;;;;;;;;;;;;;19.34;67.72;96855.98;599619;236;65731;-61
2023/05/28 07:36:20;;;;;;;;;;;;;;;19.34;67.72;96847.98;599629;236;69434;-61
2023/05/28 07:38:48;;;;;;;;;;;;;;;19.34;67.72;96846.13;599631;236;66744;-61
2023/05/28 07:41:16;;;;;;;;;;;;;;;19.35;67.76;96847.73;599607;236;62537;-61
2023/05/28 07:43:48;;;;;;;;;;;;;;;19.35;67.65;96854.94;599586;236;45970;-60
2023/05/28 07:46:23;;;;;;;;;;;;;;;19.34;67.62;96851.45;599625;236;45669;-61
2023/05/28 07:48:52;;;;;;;;;;;;;;;19.35;67.64;96847.73;599503;236;42975;-63
2023/05/28 07:51:26;;;;;;;;;;;;;;;19.34;67.63;96850.66;599573;236;45545;-63
2023/05/28 07:54:04;;;;;;;;;;;;;;;19.35;67.70;96852.27;598715;236;46213;-61
2023/05/28 07:56:32;;;;;;;;;;;;;;;19.34;67.67;96847.98;595054;236;65801;-61
2023/05/28 07:59:00;;;;;;;;;;;;;;;19.36;67.62;96853.86;598248;237;69569;-62
2023/05/28 08:01:29;;;;;;;;;;;;;;;19.35;67.60;96854.94;597264;237;69005;-62
2023/05/28 08:03:57;;;;;;;;;;;;;;;19.36;67.67;96851.20;597290;237;63659;-62
2023/05/28 08:06:27;;;;;;;;;;;;;;;19.36;67.67;96848.53;597812;236;47488;-62
2023/05/28 08:08:55;;;;;;;;;;;;;;;19.35;67.70;96849.61;599431;236;68877;-61
2023/05/28 08:11:23;;;;;;;;;;;;;;;19.35;67.63;96846.94;599531;236;62913;-60
2023/05/28 08:13:50;;;;;;;;;;;;;;;19.35;67.67;96852.27;599481;236;68508;-60
2023/05/28 08:16:18;;;;;;;;;;;;;;;19.36;67.61;96856.53;599480;235;69238;-60
2023/05/28 08:19:06;;;;;;;;;;;;;;;19.36;67.62;96856.53;598719;236;45001;-60
2023/05/28 08:21:35;;;;;;;;;;;;;;;19.36;67.60;96864.52;599463;235;69451;-60
2023/05/28 08:24:03;;;;;;;;;;;;;;;19.36;67.62;96865.31;599458;236;68663;-61
2023/05/28 08:26:31;;;;;;;;;;;;;;;19.36;67.66;96864.52;599496;236;62466;-61
2023/05/28 08:29:00;;;;;;;;;;;;;;;19.36;67.66;96864.52;599461;236;69222;-61
2023/05/28 08:31:28;;;;;;;;;;;;;;;19.36;67.66;96865.31;599429;236;68836;-61
2023/05/28 08:34:12;;;;;;;;;;;;;;;19.36;67.63;96859.19;599380;236;42485;-61
2023/05/28 08:36:42;;;;;;;;;;;;;;;19.36;67.65;96865.31;599481;236;49585;-61
2023/05/28 08:39:12;;;;;;;;;;;;;;;19.36;67.62;96859.98;599439;236;45645;-61
2023/05/28 08:41:40;;;;;;;;;;;;;;;19.36;67.64;96848.53;599493;236;64824;-61
2023/05/28 08:44:08;;;;;;;;;;;;;;;19.36;67.70;96859.98;599428;236;66501;-61
2023/05/28 08:46:37;;;;;;;;;;;;;;;19.37;67.70;96855.45;599481;235;69303;-61
2023/05/28 08:49:24;;;;;;;;;;;;;;;19.37;67.66;96852.79;599579;236;39502;-61
2023/05/28 08:51:53;;;;;;;;;;;;;;;19.36;67.68;96856.53;599343;236;66670;-61
2023/05/28 08:54:21;;;;;;;;;;;;;;;19.37;67.68;96855.45;599473;236;68747;-61
2023/05/28 08:56:49;;;;;;;;;;;;;;;19.36;67.68;96859.19;599479;236;64968;-61
2023/05/28 08:59:17;;;;;;;;;;;;;;;19.36;67.67;96854.66;599672;236;68889;-61
2023/05/28 09:01:45;;;;;;;;;;;;;;;19.36;67.68;96853.86;600068;236;66491;-61
2023/05/28 09:04:14;;;;;;;;;;;;;;;19.35;67.75;96842.41;599913;236;41632;-61
2023/05/28 09:06:43;;;;;;;;;;;;;;;19.37;67.75;96842.12;600043;236;46406;-61
2023/05/28 09:09:18;;;;;;;;;;;;;;;19.36;67.71;96843.20;599847;236;46236;-61
2023/05/28 09:11:48;;;;;;;;;;;;;;;19.37;67.72;96847.45;600088;236;42621;-61
2023/05/28 09:14:17;;;;;;;;;;;;;;;19.37;67.68;96848.28;600000;236;68844;-61
2023/05/28 09:16:45;;;;;;;;;;;;;;;19.37;67.66;96856.28;600031;236;68813;-61
2023/05/28 09:19:17;;;;;;;;;;;;;;;19.37;67.69;96847.45;599954;236;43873;-61
2023/05/28 09:21:56;;;;;;;;;;;;;;;19.37;67.71;96850.95;599987;236;67335;-61
2023/05/28 09:24:30;;;;;;;;;;;;;;;19.37;67.77;96840.29;600079;236;48177;-61
2023/05/28 09:26:57;;;;;;;;;;;;;;;19.37;67.78;96836.80;598234;236;46457;-61
2023/05/28 09:29:29;;;;;;;;;;;;;;;19.38;67.79;96835.75;600016;236;46613;-61
2023/05/28 09:31:58;;;;;;;;;;;;;;;19.37;67.80;96836.80;600013;236;66570;-61
2023/05/28 09:34:29;;;;;;;;;;;;;;;19.37;67.71;96834.13;599965;236;62982;-61
2023/05/28 09:37:01;;;;;;;;;;;;;;;19.36;67.76;96838.67;600085;236;69051;-61
2023/05/28 09:39:29;;;;;;;;;;;;;;;19.37;67.74;96836.80;599844;236;68692;-62
2023/05/28 09:42:09;;;;;;;;;;;;;;;19.38;67.78;96846.41;600055;236;64939;-62
2023/05/28 09:44:31;;;;;;;;;;;;;;;19.38;67.77;96838.42;599386;236;68874;-61
2023/05/28 09:46:59;;;;;;;;;;;;;;;19.37;67.75;96844.80;600055;236;66068;-61
2023/05/28 09:49:32;;;;;;;;;;;;;;;19.37;67.74;96840.29;600047;236;63034;-61
2023/05/28 09:52:02;;;;;;;;;;;;;;;19.38;67.76;96841.09;600121;236;68902;-62
2023/05/28 09:54:31;;;;;;;;;;;;;;;19.38;67.79;96825.09;600054;236;66680;-60
2023/05/28 09:57:02;;;;;;;;;;;;;;;19.37;67.80;96834.13;600017;236;65036;-60
2023/05/28 09:59:31;;;;;;;;;;;;;;;19.38;67.84;96835.75;600008;236;68746;-61
2023/05/28 10:02:03;;;;;;;;;;;;;;;19.38;67.83;96830.42;600054;236;66582;-60
2023/05/28 10:04:32;;;;;;;;;;;;;;;19.37;67.80;96837.63;599820;236;65057;-61
2023/05/28 10:07:00;;;;;;;;;;;;;;;19.38;67.83;96831.22;600106;236;69540;-60
2023/05/28 10:09:28;;;;;;;;;;;;;;;19.38;67.86;96825.09;600028;236;68578;-60
2023/05/28 10:11:57;;;;;;;;;;;;;;;19.38;67.85;96825.09;600036;236;62942;-61
2023/05/28 10:14:24;;;;;;;;;;;;;;;19.38;67.88;96827.77;598446;236;68869;-60
2023/05/28 10:16:52;;;;;;;;;;;;;;;19.38;67.88;96825.09;600074;236;67962;-60
2023/05/28 10:19:20;;;;;;;;;;;;;;;19.37;67.86;96823.47;600119;236;65158;-60
2023/05/28 10:21:47;;;;;;;;;;;;;;;19.38;67.81;96822.43;600029;236;66169;-60
2023/05/28 10:24:15;;;;;;;;;;;;;;;19.38;67.85;96822.43;600051;236;68576;-60
2023/05/28 10:26:43;;;;;;;;;;;;;;;19.38;67.87;96819.77;600040;236;65083;-60
2023/05/28 10:29:10;;;;;;;;;;;;;;;19.37;67.86;96824.30;594685;236;68740;-60
2023/05/28 10:31:38;;;;;;;;;;;;;;;19.39;67.86;96829.34;599992;236;68544;-61
2023/05/28 10:34:16;;;;;;;;;;;;;;;19.39;67.86;96821.36;600060;236;62989;-60
2023/05/28 10:36:51;;;;;;;;;;;;;;;19.38;67.91;96820.56;600023;236;66359;-60
2023/05/28 10:39:18;;;;;;;;;;;;;;;19.38;67.88;96817.10;600034;236;68885;-61
2023/05/28 10:41:46;;;;;;;;;;;;;;;19.38;67.91;96815.23;600057;236;65105;-61
2023/05/28 10:44:13;;;;;;;;;;;;;;;19.38;67.93;96809.11;600042;236;68659;-61
2023/05/28 10:46:41;;;;;;;;;;;;;;;19.38;67.94;96811.77;600086;236;66651;-61
2023/05/28 10:49:16;;;;;;;;;;;;;;;19.37;67.89;96802.98;599989;236;65148;-61
2023/05/28 10:51:57;;;;;;;;;;;;;;;19.38;67.93;96798.45;600015;236;66881;-60
2023/05/28 10:54:26;;;;;;;;;;;;;;;19.39;67.93;96797.38;600062;236;68722;-60
2023/05/28 10:56:55;;;;;;;;;;;;;;;19.39;68.00;96789.38;600030;236;65087;-60
2023/05/28 10:59:24;;;;;;;;;;;;;;;19.39;67.99;96786.71;599363;235;68914;-60
2023/05/28 11:02:04;;;;;;;;;;;;;;;19.38;67.94;96782.46;601519;235;68722;-61
2023/05/28 11:04:35;;;;;;;;;;;;;;;19.38;67.95;96777.13;602094;235;62996;-61
2023/05/28 11:07:03;;;;;;;;;;;;;;;19.39;67.98;96770.72;602087;235;66648;-60
2023/05/28 11:09:31;;;;;;;;;;;;;;;19.38;67.99;96761.14;602052;235;67179;-60
2023/05/28 11:12:01;;;;;;;;;;;;;;;19.38;67.97;96761.14;602057;235;62979;-60
2023/05/28 11:14:31;;;;;;;;;;;;;;;19.38;67.95;96766.47;602066;235;66695;-60
2023/05/28 11:16:58;;;;;;;;;;;;;;;19.38;67.99;96769.14;601511;235;66808;-60
2023/05/28 11:19:25;;;;;;;;;;;;;;;19.38;67.99;96767.27;602085;235;65115;-60
2023/05/28 11:21:55;;;;;;;;;;;;;;;19.38;67.96;96759.27;602057;235;68858;-60
2023/05/28 11:24:23;;;;;;;;;;;;;;;19.39;68.00;96757.40;602081;235;68707;-60
2023/05/28 11:26:53;;;;;;;;;;;;;;;19.38;67.95;96756.61;602039;235;64939;-61
2023/05/28 11:29:22;;;;;;;;;;;;;;;19.38;67.97;96758.48;602137;235;68770;-61
2023/05/28 11:31:49;;;;;;;;;;;;;;;19.39;67.96;96752.07;602105;235;66430;-61
2023/05/28 11:34:18;;;;;;;;;;;;;;;19.38;68.04;96745.95;602071;235;62948;-61
2023/05/28 11:36:46;;;;;;;;;;;;;;;19.39;67.99;96749.41;602050;235;66602;-60
2023/05/28 11:39:14;;;;;;;;;;;;;;;19.39;68.00;96746.73;602000;235;69020;-60
2023/05/28 11:41:41;;;;;;;;;;;;;;;19.39;68.01;96746.73;602096;235;63148;-60
2023/05/28 11:44:24;;;;;;;;;;;;;;;19.39;68.01;96741.41;602116;235;66673;-61
2023/05/28 11:46:55;;;;;;;;;;;;;;;19.38;67.96;96737.95;602113;235;47688;-60
2023/05/28 11:49:23;;;;;;;;;;;;;;;19.39;68.02;96741.41;602060;235;64953;-60
2023/05/28 11:51:52;;;;;;;;;;;;;;;19.38;68.00;96739.82;602095;235;68936;-60
2023/05/28 11:54:19;;;;;;;;;;;;;;;19.39;67.99;96741.41;602039;235;68718;-60
2023/05/28 11:56:53;;;;;;;;;;;;;;;19.38;68.02;96740.62;602127;235;65125;-60
2023/05/28 11:59:27;;;;;;;;;;;;;;;19.39;68.00;96736.08;602040;235;68572;-61
2023/05/28 12:01:55;;;;;;;;;;;;;;;19.38;68.06;96735.28;602075;235;68820;-60
2023/05/28 12:04:24;;;;;;;;;;;;;;;19.38;68.03;96737.95;602019;235;65013;-61
2023/05/28 12:06:53;;;;;;;;;;;;;;;19.39;68.04;96738.75;601961;235;69067;-60
2023/05/28 12:09:20;;;;;;;;;;;;;;;19.39;68.04;96744.88;602061;235;68900;-60
2023/05/28 12:12:06;;;;;;;;;;;;;;;19.40;68.03;96761.68;602115;235;65057;-60
2023/05/28 12:14:34;;;;;;;;;;;;;;;19.40;67.95;96769.67;602054;235;66642;-60
2023/05/28 12:17:06;;;;;;;;;;;;;;;19.39;67.98;96787.50;602004;235;68533;-60
2023/05/28 12:19:34;;;;;;;;;;;;;;;19.39;68.02;96784.05;601834;235;63047;-60
2023/05/28 12:22:02;;;;;;;;;;;;;;;19.40;68.10;96777.67;602083;235;68793;-60
2023/05/28 12:24:29;;;;;;;;;;;;;;;19.40;68.14;96767.80;599338;235;68742;-61
2023/05/28 12:26:57;;;;;;;;;;;;;;;19.39;68.18;96749.41;596298;235;65052;-60
2023/05/28 12:29:24;;;;;;;;;;;;;;;19.39;68.14;96749.41;602035;235;66705;-60
2023/05/28 12:31:58;;;;;;;;;;;;;;;19.39;68.13;96750.20;602070;235;66808;-61
2023/05/28 12:34:26;;;;;;;;;;;;;;;19.40;68.10;96748.36;602036;235;62747;-60
2023/05/28 12:36:54;;;;;;;;;;;;;;;19.39;68.07;96754.73;602054;235;66459;-60
2023/05/28 12:39:21;;;;;;;;;;;;;;;19.40;68.01;96775.00;602107;235;68577;-60
2023/05/28 12:41:48;;;;;;;;;;;;;;;19.41;68.03;96789.92;602034;235;65103;-61
2023/05/28 12:44:16;;;;;;;;;;;;;;;19.40;68.02;96781.12;602069;235;68789;-60
2023/05/28 12:46:45;;;;;;;;;;;;;;;19.41;68.06;96787.25;595818;235;48563;-60
2023/05/28 12:49:13;;;;;;;;;;;;;;;19.41;68.10;96781.92;602078;235;65089;-61
2023/05/28 12:51:40;;;;;;;;;;;;;;;19.40;68.16;96775.00;602105;235;68838;-60
2023/05/28 12:54:08;;;;;;;;;;;;;;;19.40;68.15;96775.80;601988;235;69145;-60
2023/05/28 12:56:38;;;;;;;;;;;;;;;19.40;68.11;96770.47;602084;235;64913;-60
2023/05/28 12:59:05;;;;;;;;;;;;;;;19.40;68.06;96770.47;602083;235;68785;-60